Time;durP1;ratioP1;P1;durP2;ratioP2;P2;SDS_P1;SDS_P2;PMS_P1;PMS_P2;Temp;Humidity;BMP_temperature;BMP_pressure;BME280_temperature;BME280_humidity;BME280_pressure;Samples;Min_cycle;Max_cycle;Signal;HPM_P1;HPM_P2
2022/07/21 00:02:18;;;;;;;19.93;16.77;;;;;;;;;;5082100;28;20887;-82
2022/07/21 00:04:46;;;;;;;17.97;15.67;;;;;;;;;;5083604;28;20499;-82
2022/07/21 00:07:13;;;;;;;17.80;14.77;;;;;;;;;;5079764;28;20464;-82
2022/07/21 00:09:41;;;;;;;17.57;14.13;;;;;;;;;;5082521;28;20448;-81
2022/07/21 00:12:10;;;;;;;16.33;14.50;;;;;;;;;;5082364;28;20456;-80
2022/07/21 00:14:37;;;;;;;17.10;14.50;;;;;;;;;;5081492;28;20449;-81
2022/07/21 00:17:07;;;;;;;17.37;14.30;;;;;;;;;;5082398;28;20453;-81
2022/07/21 00:19:35;;;;;;;18.30;14.07;;;;;;;;;;5080625;28;20470;-79
2022/07/21 00:22:03;;;;;;;19.40;13.90;;;;;;;;;;5083460;28;20464;-81
2022/07/21 00:24:30;;;;;;;19.97;14.07;;;;;;;;;;5083336;28;20550;-82
2022/07/21 00:26:58;;;;;;;24.60;14.47;;;;;;;;;;5081184;28;20475;-81
2022/07/21 00:29:32;;;;;;;15.27;12.80;;;;;;;;;;5083459;28;20875;-83
2022/07/21 00:32:00;;;;;;;15.80;13.70;;;;;;;;;;5080616;28;20467;-78
2022/07/21 00:34:29;;;;;;;18.13;14.23;;;;;;;;;;5083265;28;20485;-81
2022/07/21 00:36:57;;;;;;;15.57;12.97;;;;;;;;;;5081178;28;20757;-81
2022/07/21 00:39:25;;;;;;;19.60;12.90;;;;;;;;;;5081131;28;20453;-82
2022/07/21 00:41:53;;;;;;;16.57;13.10;;;;;;;;;;5084099;28;20456;-81
2022/07/21 00:44:21;;;;;;;16.43;12.23;;;;;;;;;;5082079;28;20680;-82
2022/07/21 00:46:49;;;;;;;12.10;10.93;;;;;;;;;;5083237;28;20484;-81
2022/07/21 00:49:17;;;;;;;13.50;11.80;;;;;;;;;;5082481;28;20470;-81
2022/07/21 00:51:47;;;;;;;13.50;12.10;;;;;;;;;;5080392;28;20452;-82
2022/07/21 00:54:16;;;;;;;17.17;11.63;;;;;;;;;;5082926;28;20498;-82
2022/07/21 00:56:44;;;;;;;12.13;10.87;;;;;;;;;;5081296;28;20449;-82
2022/07/21 00:59:15;;;;;;;15.73;11.53;;;;;;;;;;5081969;28;20464;-82
2022/07/21 01:01:44;;;;;;;13.80;11.03;;;;;;;;;;5081801;28;20452;-81
2022/07/21 01:04:11;;;;;;;17.03;13.10;;;;;;;;;;5080015;28;20476;-81
2022/07/21 01:06:39;;;;;;;17.20;11.40;;;;;;;;;;5083258;28;20588;-81
2022/07/21 01:09:10;;;;;;;15.20;11.37;;;;;;;;;;5080099;28;20724;-80
2022/07/21 01:11:39;;;;;;;13.70;11.13;;;;;;;;;;5080593;28;20807;-83
2022/07/21 01:14:07;;;;;;;14.03;11.27;;;;;;;;;;5082295;28;20548;-81
2022/07/21 01:16:35;;;;;;;12.73;10.90;;;;;;;;;;5080110;28;20668;-78
2022/07/21 01:19:03;;;;;;;13.20;10.03;;;;;;;;;;5082589;28;20449;-82
2022/07/21 01:21:36;;;;;;;15.53;10.90;;;;;;;;;;5080715;28;20461;-82
2022/07/21 01:24:05;;;;;;;14.63;9.93;;;;;;;;;;5081236;28;20457;-82
2022/07/21 01:26:33;;;;;;;16.10;10.20;;;;;;;;;;5081534;28;20496;-82
2022/07/21 01:29:00;;;;;;;11.57;8.83;;;;;;;;;;5081626;28;20774;-81
2022/07/21 01:31:28;;;;;;;11.90;9.67;;;;;;;;;;5081874;28;20456;-81
2022/07/21 01:33:56;;;;;;;14.37;10.57;;;;;;;;;;5082186;28;20444;-82
2022/07/21 01:36:24;;;;;;;12.70;9.33;;;;;;;;;;5079434;28;20461;-82
2022/07/21 01:41:39;;;;;;;12.87;9.33;;;;;;;;;;5081040;28;20448;-81
2022/07/21 01:44:08;;;;;;;11.73;8.80;;;;;;;;;;5080718;28;20457;-81
2022/07/21 01:46:37;;;;;;;11.30;10.17;;;;;;;;;;5082577;28;20930;-80
2022/07/21 01:49:05;;;;;;;10.87;9.37;;;;;;;;;;5079122;28;20449;-82
2022/07/21 01:51:33;;;;;;;11.37;8.27;;;;;;;;;;5081468;28;20445;-78
2022/07/21 01:54:02;;;;;;;12.20;8.90;;;;;;;;;;5080957;28;20506;-82
2022/07/21 01:56:30;;;;;;;11.13;9.10;;;;;;;;;;5079722;28;20903;-80
2022/07/21 01:58:59;;;;;;;10.63;8.83;;;;;;;;;;5081795;28;20448;-82
2022/07/21 02:01:28;;;;;;;11.43;8.77;;;;;;;;;;5079897;28;20472;-82
2022/07/21 02:03:56;;;;;;;12.10;9.10;;;;;;;;;;5080248;28;20898;-81
2022/07/21 02:06:24;;;;;;;13.53;9.73;;;;;;;;;;5079911;28;20488;-82
2022/07/21 02:08:52;;;;;;;13.00;9.17;;;;;;;;;;5079739;28;20463;-82
2022/07/21 02:11:21;;;;;;;11.20;9.47;;;;;;;;;;5080423;28;20938;-79
2022/07/21 02:13:49;;;;;;;12.13;10.93;;;;;;;;;;5079553;28;20449;-81
2022/07/21 02:16:17;;;;;;;14.30;9.93;;;;;;;;;;5078819;28;20868;-79
2022/07/21 02:18:45;;;;;;;12.33;9.13;;;;;;;;;;5081000;28;20752;-82
2022/07/21 02:21:13;;;;;;;11.97;8.87;;;;;;;;;;5079421;28;20765;-82
2022/07/21 02:23:41;;;;;;;12.83;9.30;;;;;;;;;;5080577;28;20900;-83
2022/07/21 02:26:15;;;;;;;13.03;9.00;;;;;;;;;;5080188;28;20488;-81
2022/07/21 02:28:44;;;;;;;14.50;9.73;;;;;;;;;;5080430;28;20708;-81
2022/07/21 02:31:12;;;;;;;12.57;9.63;;;;;;;;;;5080177;28;20872;-81
2022/07/21 02:33:40;;;;;;;19.20;9.40;;;;;;;;;;5078641;28;20542;-82
2022/07/21 02:36:08;;;;;;;13.40;9.17;;;;;;;;;;5080871;28;20468;-81
2022/07/21 02:38:36;;;;;;;14.30;10.43;;;;;;;;;;5079975;28;20456;-79
2022/07/21 02:41:10;;;;;;;13.50;8.53;;;;;;;;;;5078543;28;20469;-82
2022/07/21 02:43:37;;;;;;;11.80;9.20;;;;;;;;;;5080836;28;20487;-82
2022/07/21 02:46:06;;;;;;;11.80;9.50;;;;;;;;;;5079718;28;20490;-81
2022/07/21 02:48:34;;;;;;;12.47;10.07;;;;;;;;;;5078942;28;20528;-78
2022/07/21 02:51:02;;;;;;;13.40;9.90;;;;;;;;;;5079972;28;20480;-81
2022/07/21 02:53:30;;;;;;;14.10;10.30;;;;;;;;;;5078531;28;20448;-80
2022/07/21 02:55:59;;;;;;;12.53;9.77;;;;;;;;;;5081209;28;20475;-80
2022/07/21 02:58:27;;;;;;;14.00;9.83;;;;;;;;;;5078867;28;20472;-79
2022/07/21 03:00:56;;;;;;;16.53;10.03;;;;;;;;;;5083601;28;20461;-77
2022/07/21 03:03:27;;;;;;;16.53;10.80;;;;;;;;;;5082758;28;20903;-82
2022/07/21 03:05:55;;;;;;;14.30;10.37;;;;;;;;;;5082713;28;20570;-82
2022/07/21 03:08:23;;;;;;;15.43;9.33;;;;;;;;;;5084379;28;21044;-81
2022/07/21 03:10:51;;;;;;;17.30;8.97;;;;;;;;;;5081377;28;20991;-81
2022/07/21 03:13:19;;;;;;;14.60;9.43;;;;;;;;;;5083724;28;20888;-82
2022/07/21 03:15:47;;;;;;;15.90;10.93;;;;;;;;;;5082019;28;20539;-80
2022/07/21 03:18:15;;;;;;;14.50;8.83;;;;;;;;;;5082201;28;20535;-80
2022/07/21 03:20:44;;;;;;;15.20;9.07;;;;;;;;;;5084653;28;20538;-82
2022/07/21 03:23:12;;;;;;;14.80;9.73;;;;;;;;;;5083208;28;20539;-80
2022/07/21 03:25:40;;;;;;;15.10;9.60;;;;;;;;;;5081354;28;20912;-82
2022/07/21 03:28:07;;;;;;;11.70;8.93;;;;;;;;;;5084159;28;20503;-82
2022/07/21 03:30:35;;;;;;;14.57;9.03;;;;;;;;;;5082899;28;20448;-82
2022/07/21 03:33:03;;;;;;;13.60;8.13;;;;;;;;;;5085029;28;20787;-82
2022/07/21 03:35:31;;;;;;;14.87;8.97;;;;;;;;;;5083952;28;20460;-82
2022/07/21 03:38:02;;;;;;;17.50;8.90;;;;;;;;;;5082155;28;20530;-82
2022/07/21 03:40:30;;;;;;;11.90;8.93;;;;;;;;;;5083454;28;20456;-82
2022/07/21 03:42:59;;;;;;;11.70;8.20;;;;;;;;;;5080346;28;20547;-82
2022/07/21 03:45:29;;;;;;;11.23;8.23;;;;;;;;;;5083341;28;20452;-80
2022/07/21 03:47:58;;;;;;;11.17;6.80;;;;;;;;;;5082842;28;20900;-79
2022/07/21 03:50:25;;;;;;;17.43;7.90;;;;;;;;;;5080684;28;20445;-81
2022/07/21 03:52:53;;;;;;;9.60;6.50;;;;;;;;;;5084621;28;20499;-80
2022/07/21 03:55:24;;;;;;;12.13;6.73;;;;;;;;;;5080702;28;20539;-82
2022/07/21 03:57:53;;;;;;;12.70;7.00;;;;;;;;;;5083056;28;20879;-78
2022/07/21 04:00:23;;;;;;;10.07;6.17;;;;;;;;;;5083388;28;20448;-82
2022/07/21 04:02:51;;;;;;;10.50;5.70;;;;;;;;;;5080897;28;20460;-80
2022/07/21 04:05:20;;;;;;;12.17;6.00;;;;;;;;;;5083482;28;20857;-81
2022/07/21 04:07:48;;;;;;;14.57;6.00;;;;;;;;;;5080276;28;20559;-81
2022/07/21 04:10:16;;;;;;;10.83;6.10;;;;;;;;;;5081632;28;20532;-81
2022/07/21 04:12:46;;;;;;;10.07;5.60;;;;;;;;;;5080137;28;20467;-80
2022/07/21 04:15:14;;;;;;;11.47;5.50;;;;;;;;;;5080971;28;20957;-82
2022/07/21 04:17:43;;;;;;;10.60;5.43;;;;;;;;;;5083355;28;20718;-78
2022/07/21 04:20:11;;;;;;;9.23;5.03;;;;;;;;;;5081371;28;20461;-80
2022/07/21 04:22:39;;;;;;;12.77;7.43;;;;;;;;;;5082367;28;20538;-80
2022/07/21 04:25:07;;;;;;;8.70;4.50;;;;;;;;;;5081298;28;20547;-80
2022/07/21 04:27:35;;;;;;;8.93;5.10;;;;;;;;;;5080509;28;20567;-79
2022/07/21 04:30:06;;;;;;;9.90;5.80;;;;;;;;;;5081743;28;20805;-82
2022/07/21 04:32:33;;;;;;;8.80;4.40;;;;;;;;;;5079182;28;20503;-82
2022/07/21 04:35:01;;;;;;;8.67;6.30;;;;;;;;;;5080005;28;20468;-82
2022/07/21 04:37:29;;;;;;;8.67;5.20;;;;;;;;;;5080295;28;20478;-81
2022/07/21 04:39:56;;;;;;;10.30;5.87;;;;;;;;;;5079177;28;20844;-79
2022/07/21 04:42:24;;;;;;;15.17;5.07;;;;;;;;;;5081409;28;20547;-79
2022/07/21 04:44:52;;;;;;;7.57;4.90;;;;;;;;;;5080294;28;20521;-79
2022/07/21 04:47:21;;;;;;;8.03;4.87;;;;;;;;;;5079604;28;20579;-80
2022/07/21 04:49:49;;;;;;;9.93;5.10;;;;;;;;;;5078900;28;20809;-79
2022/07/21 04:52:17;;;;;;;9.60;5.53;;;;;;;;;;5079764;28;20503;-80
2022/07/21 04:54:45;;;;;;;7.00;3.73;;;;;;;;;;5078470;28;20499;-80
2022/07/21 04:57:13;;;;;;;12.40;4.87;;;;;;;;;;5078672;28;20503;-81
2022/07/21 04:59:40;;;;;;;18.17;6.00;;;;;;;;;;5078137;28;20449;-80
2022/07/21 05:02:08;;;;;;;9.00;4.63;;;;;;;;;;5079634;28;20480;-80
2022/07/21 05:04:37;;;;;;;11.13;5.30;;;;;;;;;;5078543;28;20728;-79
2022/07/21 05:07:05;;;;;;;12.03;4.97;;;;;;;;;;5078843;28;20520;-80
2022/07/21 05:09:33;;;;;;;15.20;4.97;;;;;;;;;;5078744;28;20449;-80
2022/07/21 05:12:01;;;;;;;8.93;4.23;;;;;;;;;;5077863;28;20539;-79
2022/07/21 05:14:29;;;;;;;9.03;4.83;;;;;;;;;;5078639;28;20456;-81
2022/07/21 05:16:57;;;;;;;11.00;4.90;;;;;;;;;;5078479;28;20496;-80
2022/07/21 05:19:24;;;;;;;9.03;4.13;;;;;;;;;;5079837;28;20560;-81
2022/07/21 05:21:53;;;;;;;6.23;3.90;;;;;;;;;;5077378;28;20453;-82
2022/07/21 05:24:21;;;;;;;13.73;4.57;;;;;;;;;;5078065;28;20544;-79
2022/07/21 05:26:49;;;;;;;10.17;5.10;;;;;;;;;;5077678;28;20601;-81
2022/07/21 05:29:17;;;;;;;7.20;4.17;;;;;;;;;;5077302;28;20452;-80
2022/07/21 05:31:45;;;;;;;10.60;5.23;;;;;;;;;;5077884;28;20547;-80
2022/07/21 05:34:12;;;;;;;8.73;3.90;;;;;;;;;;5077842;28;20453;-82
2022/07/21 05:36:40;;;;;;;7.70;4.30;;;;;;;;;;5077240;28;20534;-79
2022/07/21 05:39:10;;;;;;;8.27;4.10;;;;;;;;;;5077387;28;20535;-82
2022/07/21 05:41:37;;;;;;;9.43;4.10;;;;;;;;;;5077433;28;20768;-79
2022/07/21 05:44:05;;;;;;;9.17;5.53;;;;;;;;;;5077843;28;20539;-80
2022/07/21 05:46:33;;;;;;;7.00;3.70;;;;;;;;;;5076800;28;20547;-80
2022/07/21 05:49:00;;;;;;;9.20;4.07;;;;;;;;;;5078645;28;20441;-78
2022/07/21 05:51:28;;;;;;;8.30;4.97;;;;;;;;;;5076038;28;21099;-79
2022/07/21 05:53:57;;;;;;;10.87;5.83;;;;;;;;;;5079390;28;20453;-80
2022/07/21 05:56:26;;;;;;;10.00;5.47;;;;;;;;;;5078822;28;20525;-80
2022/07/21 05:58:54;;;;;;;9.13;4.60;;;;;;;;;;5076902;28;20850;-80
2022/07/21 06:01:25;;;;;;;11.10;4.90;;;;;;;;;;5077401;28;20535;-81
2022/07/21 06:03:52;;;;;;;8.17;4.83;;;;;;;;;;5078216;28;20465;-82
2022/07/21 06:06:24;;;;;;;11.83;6.03;;;;;;;;;;5079999;28;20836;-82
2022/07/21 06:08:53;;;;;;;14.43;4.77;;;;;;;;;;5077347;28;20457;-80
2022/07/21 06:11:21;;;;;;;8.23;4.73;;;;;;;;;;5072716;28;20486;-81
2022/07/21 06:13:50;;;;;;;11.10;7.20;;;;;;;;;;5078713;28;20492;-80
2022/07/21 06:16:18;;;;;;;11.23;5.97;;;;;;;;;;5074046;28;20489;-79
2022/07/21 06:18:46;;;;;;;8.60;4.30;;;;;;;;;;5081466;28;20448;-79
2022/07/21 06:21:13;;;;;;;10.50;5.93;;;;;;;;;;5079102;28;20460;-81
2022/07/21 06:23:41;;;;;;;9.23;5.70;;;;;;;;;;5059313;28;20545;-80
2022/07/21 06:26:09;;;;;;;8.57;6.70;;;;;;;;;;5062933;28;20519;-79
2022/07/21 06:28:37;;;;;;;9.30;5.73;;;;;;;;;;5058982;28;20465;-80
2022/07/21 06:31:09;;;;;;;10.37;5.27;;;;;;;;;;5074660;28;20828;-81
2022/07/21 06:33:37;;;;;;;13.10;6.57;;;;;;;;;;5077678;28;20451;-81
2022/07/21 06:36:06;;;;;;;14.60;7.47;;;;;;;;;;5076311;28;20463;-81
2022/07/21 06:38:44;;;;;;;11.33;6.07;;;;;;;;;;5073433;28;20450;-81
2022/07/21 06:41:12;;;;;;;7.07;5.53;;;;;;;;;;5078028;28;20456;-81
2022/07/21 06:43:40;;;;;;;11.93;5.97;;;;;;;;;;5080866;28;20498;-82
2022/07/21 06:46:14;;;;;;;11.77;7.40;;;;;;;;;;5067942;28;20496;-81
2022/07/21 06:48:42;;;;;;;9.97;6.73;;;;;;;;;;5082049;28;20486;-81
2022/07/21 06:51:10;;;;;;;9.17;5.80;;;;;;;;;;5076232;28;20564;-80
2022/07/21 06:53:42;;;;;;;9.20;6.97;;;;;;;;;;5083491;28;20515;-79
2022/07/21 06:56:09;;;;;;;15.87;6.90;;;;;;;;;;5085758;28;20453;-82
2022/07/21 06:58:37;;;;;;;10.60;6.40;;;;;;;;;;5077825;28;20476;-82
2022/07/21 07:01:05;;;;;;;14.23;6.13;;;;;;;;;;5064643;28;20446;-81
2022/07/21 07:03:34;;;;;;;9.77;5.90;;;;;;;;;;5075942;28;20567;-81
2022/07/21 07:06:02;;;;;;;10.83;6.60;;;;;;;;;;5080478;28;20503;-81
2022/07/21 07:08:31;;;;;;;10.13;6.40;;;;;;;;;;5074462;28;20486;-80
2022/07/21 07:10:59;;;;;;;10.27;5.60;;;;;;;;;;5077921;28;20476;-81
2022/07/21 07:13:27;;;;;;;13.80;8.23;;;;;;;;;;5081601;28;20521;-80
2022/07/21 07:15:55;;;;;;;10.90;6.50;;;;;;;;;;5067232;28;20472;-82
2022/07/21 07:18:23;;;;;;;9.60;6.70;;;;;;;;;;5073180;28;20515;-82
2022/07/21 07:20:53;;;;;;;13.50;7.03;;;;;;;;;;5075635;28;20469;-79
2022/07/21 07:23:21;;;;;;;9.27;6.63;;;;;;;;;;5080800;28;20509;-81
2022/07/21 07:25:50;;;;;;;7.97;7.17;;;;;;;;;;5078413;28;20846;-82
2022/07/21 07:28:17;;;;;;;12.30;8.20;;;;;;;;;;5076048;28;20490;-82
2022/07/21 07:30:45;;;;;;;13.77;7.77;;;;;;;;;;5072889;28;20508;-80
2022/07/21 07:33:13;;;;;;;17.57;7.23;;;;;;;;;;5073903;28;20474;-81
2022/07/21 07:35:41;;;;;;;10.23;7.50;;;;;;;;;;5072568;28;20464;-80
2022/07/21 07:38:14;;;;;;;11.90;8.07;;;;;;;;;;5071169;28;20453;-82
2022/07/21 07:40:41;;;;;;;10.07;7.70;;;;;;;;;;5069414;28;20551;-84
2022/07/21 07:43:12;;;;;;;11.83;6.97;;;;;;;;;;5080693;28;20454;-79
2022/07/21 07:45:43;;;;;;;7.77;7.07;;;;;;;;;;5071060;28;20458;-78
2022/07/21 07:48:11;;;;;;;8.83;6.97;;;;;;;;;;5078058;28;20574;-79
2022/07/21 07:50:42;;;;;;;12.67;7.93;;;;;;;;;;5079667;28;20453;-80
2022/07/21 07:53:41;;;;;;;12.50;7.33;;;;;;;;;;5081302;28;20479;-80
2022/07/21 07:56:48;;;;;;;16.37;9.27;;;;;;;;;;5041319;28;20493;-82
2022/07/21 07:59:26;;;;;;;12.00;8.23;;;;;;;;;;5077106;28;20507;-80
2022/07/21 08:02:02;;;;;;;12.33;8.37;;;;;;;;;;5089016;28;20445;-79
2022/07/21 08:04:37;;;;;;;14.50;8.03;;;;;;;;;;5089096;28;20688;-79
2022/07/21 08:07:15;;;;;;;12.33;8.33;;;;;;;;;;5086523;28;20467;-79
2022/07/21 08:10:09;;;;;;;12.47;9.63;;;;;;;;;;5067358;28;20796;-82
2022/07/21 08:12:44;;;;;;;14.37;8.50;;;;;;;;;;5079332;28;20457;-79
2022/07/21 08:15:15;;;;;;;16.73;9.53;;;;;;;;;;5083894;28;20470;-82
2022/07/21 08:17:46;;;;;;;12.13;8.70;;;;;;;;;;5084978;28;20441;-80
2022/07/21 08:20:45;;;;;;;13.00;9.80;;;;;;;;;;5072389;28;20465;-80
2022/07/21 08:23:19;;;;;;;11.70;8.50;;;;;;;;;;5076040;28;20514;-81
2022/07/21 08:26:02;;;;;;;11.47;10.27;;;;;;;;;;5077987;28;20457;-80
2022/07/21 08:28:36;;;;;;;11.00;8.30;;;;;;;;;;5083377;28;20485;-82
2022/07/21 08:31:22;;;;;;;14.40;9.27;;;;;;;;;;5079386;28;20972;-81
2022/07/21 08:33:55;;;;;;;12.43;9.50;;;;;;;;;;5083747;28;20465;-82
2022/07/21 08:36:27;;;;;;;18.80;10.27;;;;;;;;;;5074829;28;20499;-83
2022/07/21 08:39:00;;;;;;;16.03;11.27;;;;;;;;;;5082388;28;20831;-85
2022/07/21 08:41:43;;;;;;;12.93;9.97;;;;;;;;;;5075717;28;20525;-84
2022/07/21 08:44:18;;;;;;;13.03;10.90;;;;;;;;;;5073701;28;20506;-83
2022/07/21 08:49:45;;;;;;;15.97;11.90;;;;;;;;;;5076448;28;20559;-80
2022/07/21 08:52:25;;;;;;;18.63;13.20;;;;;;;;;;5078148;28;20475;-82
2022/07/21 08:54:55;;;;;;;14.87;12.00;;;;;;;;;;5080902;28;20448;-82
2022/07/21 08:57:23;;;;;;;20.67;14.97;;;;;;;;;;5080673;28;20525;-83
2022/07/21 08:59:51;;;;;;;13.67;11.70;;;;;;;;;;5080669;28;20444;-82
2022/07/21 09:02:30;;;;;;;16.17;12.80;;;;;;;;;;5073778;28;20476;-84
2022/07/21 09:04:58;;;;;;;16.30;11.10;;;;;;;;;;5075017;28;20490;-81
2022/07/21 09:07:26;;;;;;;17.00;11.70;;;;;;;;;;5081574;28;20919;-82
2022/07/21 09:09:58;;;;;;;14.00;11.37;;;;;;;;;;5072687;28;20489;-83
2022/07/21 09:12:26;;;;;;;18.70;13.10;;;;;;;;;;5071848;28;21222;-80
2022/07/21 09:15:13;;;;;;;15.40;11.90;;;;;;;;;;5077604;28;20463;-83
2022/07/21 09:17:43;;;;;;;16.53;12.17;;;;;;;;;;5080702;28;20507;-82
2022/07/21 09:20:23;;;;;;;16.33;12.43;;;;;;;;;;5079197;28;20476;-83
2022/07/21 09:23:14;;;;;;;19.23;16.73;;;;;;;;;;5075176;28;20503;-81
2022/07/21 09:25:55;;;;;;;15.23;12.93;;;;;;;;;;5059551;28;20464;-83
2022/07/21 09:28:29;;;;;;;16.83;12.50;;;;;;;;;;5081292;28;20559;-83
2022/07/21 09:31:00;;;;;;;16.10;13.10;;;;;;;;;;5077455;28;20590;-82
2022/07/21 09:33:32;;;;;;;21.33;17.00;;;;;;;;;;5072319;28;20533;-81
2022/07/21 09:36:04;;;;;;;20.27;15.27;;;;;;;;;;5078374;28;20745;-80
2022/07/21 09:38:46;;;;;;;17.57;15.70;;;;;;;;;;5074870;28;20480;-81
2022/07/21 09:41:15;;;;;;;15.50;13.10;;;;;;;;;;5076916;28;20452;-82
2022/07/21 09:43:47;;;;;;;15.93;14.30;;;;;;;;;;5074808;28;20488;-80
2022/07/21 09:46:20;;;;;;;14.53;12.57;;;;;;;;;;5080367;28;20488;-79
2022/07/21 09:48:57;;;;;;;16.87;12.47;;;;;;;;;;5077808;28;20847;-80
2022/07/21 09:51:31;;;;;;;20.93;13.73;;;;;;;;;;5078577;28;20452;-80
2022/07/21 09:54:23;;;;;;;21.50;17.10;;;;;;;;;;5084269;28;20825;-81
2022/07/21 09:56:51;;;;;;;17.60;13.23;;;;;;;;;;5077057;28;20453;-81
2022/07/21 09:59:21;;;;;;;14.00;12.57;;;;;;;;;;5076383;28;20556;-81
2022/07/21 10:01:50;;;;;;;14.77;13.10;;;;;;;;;;5075113;28;20507;-81
2022/07/21 10:04:21;;;;;;;15.57;13.20;;;;;;;;;;5078584;28;20504;-82
2022/07/21 10:06:54;;;;;;;16.87;14.40;;;;;;;;;;5071873;28;20461;-81
2022/07/21 10:09:23;;;;;;;19.27;14.07;;;;;;;;;;5071135;28;20504;-81
2022/07/21 10:11:51;;;;;;;15.93;13.53;;;;;;;;;;5074485;28;20490;-82
2022/07/21 10:14:22;;;;;;;15.43;13.20;;;;;;;;;;5071017;28;20460;-82
2022/07/21 10:16:50;;;;;;;20.07;13.73;;;;;;;;;;5080390;28;20463;-80
2022/07/21 10:19:21;;;;;;;13.03;11.73;;;;;;;;;;5080006;28;20455;-81
2022/07/21 10:21:55;;;;;;;14.30;12.87;;;;;;;;;;5070962;28;20457;-83
2022/07/21 10:24:23;;;;;;;16.47;12.73;;;;;;;;;;5075619;28;20460;-80
2022/07/21 10:27:07;;;;;;;13.40;11.80;;;;;;;;;;5066382;28;20484;-83
2022/07/21 10:29:54;;;;;;;14.77;12.90;;;;;;;;;;5068035;28;20507;-81
2022/07/21 10:32:23;;;;;;;14.80;12.90;;;;;;;;;;5069470;28;20461;-83
2022/07/21 10:34:52;;;;;;;16.70;13.40;;;;;;;;;;5077077;28;20465;-82
2022/07/21 10:37:38;;;;;;;15.10;12.87;;;;;;;;;;5076534;28;20776;-82
2022/07/21 10:40:11;;;;;;;13.90;12.40;;;;;;;;;;5078982;28;20601;-81
2022/07/21 10:42:39;;;;;;;12.57;10.60;;;;;;;;;;5078827;28;20635;-83
2022/07/21 10:45:18;;;;;;;16.10;10.87;;;;;;;;;;5078288;28;20491;-83
2022/07/21 10:47:46;;;;;;;19.47;15.07;;;;;;;;;;5073597;28;20452;-84
2022/07/21 10:50:31;;;;;;;14.30;12.10;;;;;;;;;;5076358;28;20518;-83
2022/07/21 10:53:03;;;;;;;11.37;10.17;;;;;;;;;;5069839;28;20567;-82
2022/07/21 10:55:32;;;;;;;12.47;10.00;;;;;;;;;;5076848;28;20747;-82
2022/07/21 10:58:14;;;;;;;12.70;10.03;;;;;;;;;;5074533;28;20445;-83
2022/07/21 11:00:50;;;;;;;11.30;10.20;;;;;;;;;;5069472;28;20452;-78
2022/07/21 11:03:23;;;;;;;16.63;10.43;;;;;;;;;;5068875;28;20469;-82
2022/07/21 11:06:13;;;;;;;16.20;10.53;;;;;;;;;;5072920;28;20519;-82
2022/07/21 11:08:43;;;;;;;16.00;11.17;;;;;;;;;;5071825;28;20588;-81
2022/07/21 11:11:12;;;;;;;12.30;10.03;;;;;;;;;;5071901;28;20479;-84
2022/07/21 11:14:01;;;;;;;11.77;9.70;;;;;;;;;;5073148;28;20468;-80
2022/07/21 11:16:52;;;;;;;11.10;9.90;;;;;;;;;;5067320;28;20459;-80
2022/07/21 11:19:33;;;;;;;11.30;9.80;;;;;;;;;;5072507;28;20467;-83
2022/07/21 11:22:02;;;;;;;12.13;9.57;;;;;;;;;;5064119;28;20543;-85
2022/07/21 11:24:32;;;;;;;11.50;9.67;;;;;;;;;;5071966;28;20465;-84
2022/07/21 11:27:01;;;;;;;13.87;9.20;;;;;;;;;;5071051;28;20505;-83
2022/07/21 11:29:36;;;;;;;10.03;8.53;;;;;;;;;;5066108;28;20472;-83
2022/07/21 11:32:04;;;;;;;10.07;8.87;;;;;;;;;;5076631;28;20921;-81
2022/07/21 11:34:43;;;;;;;11.70;9.47;;;;;;;;;;5083211;28;20481;-84
2022/07/21 11:37:11;;;;;;;14.73;11.03;;;;;;;;;;5071380;28;20467;-86
2022/07/21 11:39:41;;;;;;;9.90;8.87;;;;;;;;;;5081761;28;20518;-80
2022/07/21 11:42:09;;;;;;;11.53;8.50;;;;;;;;;;5077325;28;20532;-82
2022/07/21 11:44:38;;;;;;;13.03;7.73;;;;;;;;;;5082421;28;20543;-82
2022/07/21 11:47:07;;;;;;;7.10;6.40;;;;;;;;;;5066431;28;20477;-81
2022/07/21 11:49:35;;;;;;;9.23;6.63;;;;;;;;;;5079295;28;20485;-82
2022/07/21 11:52:07;;;;;;;7.73;6.40;;;;;;;;;;5076359;28;20552;-81
2022/07/21 11:54:43;;;;;;;7.33;6.03;;;;;;;;;;5081503;28;20460;-81
2022/07/21 11:57:23;;;;;;;7.70;5.90;;;;;;;;;;5087238;28;20486;-82
2022/07/21 11:59:55;;;;;;;8.20;5.90;;;;;;;;;;5088969;28;20510;-81
2022/07/21 12:02:24;;;;;;;9.97;6.00;;;;;;;;;;5066109;28;20519;-84
2022/07/21 12:04:52;;;;;;;6.63;5.97;;;;;;;;;;5078068;28;20541;-81
2022/07/21 12:07:24;;;;;;;6.03;5.40;;;;;;;;;;5083423;28;20453;-83
2022/07/21 12:09:53;;;;;;;5.70;4.80;;;;;;;;;;5083279;28;20516;-80
2022/07/21 12:12:32;;;;;;;5.27;4.77;;;;;;;;;;5080352;28;20456;-83
2022/07/21 12:15:15;;;;;;;5.97;3.97;;;;;;;;;;5085952;28;20563;-82
2022/07/21 12:17:47;;;;;;;5.10;3.70;;;;;;;;;;5087988;28;20452;-82
2022/07/21 12:20:18;;;;;;;4.70;3.70;;;;;;;;;;5082425;28;20453;-83
2022/07/21 12:22:49;;;;;;;5.07;3.50;;;;;;;;;;5065882;28;20462;-83
2022/07/21 12:25:19;;;;;;;8.93;5.90;;;;;;;;;;5065643;28;20455;-82
2022/07/21 12:27:50;;;;;;;4.53;3.23;;;;;;;;;;5067472;28;20441;-84
2022/07/21 12:30:38;;;;;;;4.70;4.17;;;;;;;;;;5066113;28;20481;-82
2022/07/21 12:33:10;;;;;;;5.23;3.57;;;;;;;;;;5066581;28;20520;-83
2022/07/21 12:35:42;;;;;;;5.30;3.10;;;;;;;;;;5065180;28;20444;-83
2022/07/21 12:38:11;;;;;;;5.77;3.10;;;;;;;;;;5067089;28;20461;-81
2022/07/21 12:40:40;;;;;;;4.57;3.10;;;;;;;;;;5083576;28;20453;-82
2022/07/21 12:43:28;;;;;;;5.93;4.27;;;;;;;;;;5079113;28;20476;-83
2022/07/21 12:45:58;;;;;;;4.47;2.93;;;;;;;;;;5074136;28;20454;-80
2022/07/21 12:48:29;;;;;;;4.67;3.57;;;;;;;;;;5073457;28;20486;-79
2022/07/21 12:51:27;;;;;;;3.80;2.80;;;;;;;;;;5080576;28;20455;-81
2022/07/21 12:53:55;;;;;;;4.77;2.90;;;;;;;;;;5084117;28;20878;-83
2022/07/21 12:56:24;;;;;;;4.30;3.17;;;;;;;;;;5078641;28;20483;-83
2022/07/21 12:59:07;;;;;;;3.60;3.10;;;;;;;;;;5070998;28;20438;-83
2022/07/21 13:01:36;;;;;;;7.10;3.93;;;;;;;;;;5076480;28;20837;-80
2022/07/21 13:10:07;;;;;;;3.93;3.20;;;;;;;;;;5075767;28;20511;-82
2022/07/21 13:12:40;;;;;;;4.00;2.70;;;;;;;;;;5083136;28;20475;-81
2022/07/21 13:15:10;;;;;;;6.03;3.80;;;;;;;;;;5078306;28;20475;-81
2022/07/21 13:17:42;;;;;;;4.67;3.83;;;;;;;;;;5084018;28;20461;-80
2022/07/21 13:20:11;;;;;;;4.00;2.73;;;;;;;;;;5081744;28;20440;-81
2022/07/21 13:22:40;;;;;;;5.03;3.30;;;;;;;;;;5078592;28;20469;-81
2022/07/21 13:25:09;;;;;;;5.73;3.17;;;;;;;;;;5079575;28;20472;-81
2022/07/21 13:27:38;;;;;;;3.20;2.50;;;;;;;;;;5073501;28;20480;-82
2022/07/21 13:30:08;;;;;;;3.80;3.27;;;;;;;;;;5081258;28;20488;-81
2022/07/21 13:32:37;;;;;;;4.83;3.57;;;;;;;;;;5078436;28;20467;-80
2022/07/21 13:35:12;;;;;;;5.67;4.20;;;;;;;;;;5084218;28;20453;-80
2022/07/21 13:37:40;;;;;;;3.87;2.77;;;;;;;;;;5081496;28;20472;-81
2022/07/21 13:40:08;;;;;;;4.30;2.53;;;;;;;;;;5075387;28;20630;-80
2022/07/21 13:42:37;;;;;;;3.77;2.30;;;;;;;;;;5064214;28;20557;-81
2022/07/21 13:45:07;;;;;;;4.83;2.70;;;;;;;;;;5075093;28;20499;-80
2022/07/21 13:47:36;;;;;;;3.70;2.60;;;;;;;;;;5072888;28;20495;-81
2022/07/21 13:50:06;;;;;;;4.20;2.60;;;;;;;;;;5070741;28;20473;-83
2022/07/21 13:52:34;;;;;;;3.80;2.47;;;;;;;;;;5072783;28;20524;-83
2022/07/21 13:55:03;;;;;;;3.00;2.27;;;;;;;;;;5078305;28;20460;-83
2022/07/21 13:57:31;;;;;;;3.10;1.97;;;;;;;;;;5069814;28;20668;-84
2022/07/21 13:59:59;;;;;;;3.50;2.00;;;;;;;;;;5075719;28;20489;-82
2022/07/21 14:02:27;;;;;;;3.40;2.00;;;;;;;;;;5077205;28;20465;-79
2022/07/21 14:04:55;;;;;;;2.30;1.60;;;;;;;;;;5073720;28;20461;-83
2022/07/21 14:07:24;;;;;;;4.13;2.30;;;;;;;;;;5068439;28;20860;-81
2022/07/21 14:09:52;;;;;;;2.90;1.67;;;;;;;;;;5070871;28;20574;-82
2022/07/21 14:12:22;;;;;;;2.70;1.90;;;;;;;;;;5076243;28;20468;-83
2022/07/21 14:14:50;;;;;;;5.13;2.37;;;;;;;;;;5071586;28;20871;-83
2022/07/21 14:17:18;;;;;;;2.63;2.07;;;;;;;;;;5075095;28;20460;-79
2022/07/21 14:19:51;;;;;;;2.43;1.57;;;;;;;;;;5078218;28;20748;-79
2022/07/21 14:22:21;;;;;;;3.90;3.17;;;;;;;;;;5077333;28;20460;-83
2022/07/21 14:27:31;;;;;;;2.30;1.63;;;;;;;;;;5043227;28;20481;-84
2022/07/21 14:30:00;;;;;;;3.40;2.50;;;;;;;;;;5056531;28;20477;-84
2022/07/21 14:32:33;;;;;;;3.27;1.87;;;;;;;;;;5059241;28;20906;-82
2022/07/21 14:35:01;;;;;;;4.77;2.23;;;;;;;;;;5060903;28;20867;-82
2022/07/21 14:37:29;;;;;;;6.40;4.67;;;;;;;;;;5055953;28;20518;-81
2022/07/21 14:40:01;;;;;;;3.13;2.10;;;;;;;;;;5059735;28;20471;-82
2022/07/21 14:42:29;;;;;;;4.30;2.10;;;;;;;;;;5054833;28;20465;-82
2022/07/21 14:44:58;;;;;;;3.23;2.57;;;;;;;;;;5058852;28;20520;-83
2022/07/21 14:47:26;;;;;;;4.47;1.90;;;;;;;;;;5051061;28;20461;-83
2022/07/21 14:49:54;;;;;;;3.77;2.67;;;;;;;;;;5058204;28;20485;-84
2022/07/21 14:52:21;;;;;;;3.97;2.67;;;;;;;;;;5058175;28;20449;-84
2022/07/21 14:54:49;;;;;;;3.53;2.47;;;;;;;;;;5057987;28;20499;-83
2022/07/21 14:57:19;;;;;;;8.67;3.40;;;;;;;;;;5060438;28;20445;-84
2022/07/21 14:59:46;;;;;;;5.33;4.00;;;;;;;;;;5060182;28;20449;-84
2022/07/21 15:02:22;;;;;;;4.77;4.10;;;;;;;;;;5060930;28;20486;-84
2022/07/21 15:04:50;;;;;;;6.30;3.53;;;;;;;;;;5062016;28;20510;-83
2022/07/21 15:07:18;;;;;;;6.67;4.37;;;;;;;;;;5061008;28;20463;-83